Buoy 54955

sailwx.info

Track history (hours):
 
Tides and Currents Weather Stations Pressure Air Temp Water Temp Dewpoint Dewpoint Depression Visibility Wind Speed Wind Dir Waves Ship Positions

Luruyu54955

Last reported at 2016-Dec-06 14:00 UTC. Time now 2016-Dec-06 16:06 UTC.
Position S 35°46' W 143°17'.

Length 27 m.

Type: Fishing. MMSI: 412330945.

Barometer 1014.7 mb
Water temperature 17.6 ° C

Date/timePositionNaut miles runAvg speedWind from/ knotsBaromVisibWave heightAir tempDewpointWater temp
2016-Dec-06 14:00S 35°46' W 143°17'0 0.0 1014.7 17.6
2016-Dec-06 13:00S 35°46' W 143°17'1 0.8 1015.0 17.6
2016-Dec-06 12:00S 35°47' W 143°17'1 0.8 1015.5 17.6
2016-Dec-06 11:00S 35°47' W 143°18'0 0.0 1016.2 17.6
2016-Dec-06 10:00S 35°47' W 143°18'2 1.6 1016.8 17.6
2016-Dec-06 09:00S 35°48' W 143°20'0 0.5 1017.2 17.7
2016-Dec-06 08:00S 35°48' W 143°19'1 1.2 1017.1 17.7
2016-Dec-06 07:00S 35°47' W 143°19'1 0.6 1017.5 17.7
2016-Dec-06 06:00S 35°47' W 143°19'1 0.8 1017.7 17.7
2016-Dec-06 05:00S 35°47' W 143°19'1 0.2 1017.4 17.7
2016-Dec-06 01:00S 35°47' W 143°19'1 1.5 1016.8 17.8
2016-Dec-06 00:00S 35°47' W 143°17'0 0.0 1017.1 17.7
2016-Dec-05 23:00S 35°47' W 143°17'0 0.0 1017.1 17.6
2016-Dec-05 22:00S 35°47' W 143°17'2 0.5 1017.1 17.6
2016-Dec-05 19:00S 35°48' W 143°16'1 0.8 1016.7 17.3
2016-Dec-05 18:00S 35°49' W 143°15'1 0.8 1016.5 17.2
2016-Dec-05 17:00S 35°49' W 143°14'1 0.6 1016.2 17.0
2016-Dec-05 16:00S 35°49' W 143°14'2 2.0 1015.4 17.0
2016-Dec-05 15:00S 35°50' W 143°13'0 0.0 1014.6 16.9
2016-Dec-05 14:00S 35°50' W 143°13'1 0.4 1013.8 16.8
2016-Dec-05 12:00S 35°51' W 143°14'1 1.3 1012.6 16.6
2016-Dec-05 11:00S 35°52' W 143°14'1 0.2 1012.4 16.6
2016-Dec-05 08:00S 35°52' W 143°14'0 0.0 1011.5 16.6
2016-Dec-05 07:00S 35°52' W 143°14'0 0.5 1010.7 16.6
2016-Dec-05 06:00S 35°52' W 143°14'2 0.4 1009.9 16.6
2016-Dec-05 01:00S 35°53' W 143°12'1 1.3 1006.5 16.8
2016-Dec-05 00:00S 35°54' W 143°11'0 0.0 1006.1 16.8
2016-Dec-04 23:00S 35°54' W 143°11'2 0.8 1005.7 16.7
2016-Dec-04 20:00S 35°56' W 143°11'0 0.0 1003.9 16.7
2016-Dec-04 19:00S 35°56' W 143°11'1 0.6 1002.7 16.6
2016-Dec-04 18:00S 35°57' W 143°11'0 0.5 1002.0 16.6
2016-Dec-04 17:00S 35°57' W 143°11'0 0.5 1001.2 16.6
2016-Dec-04 16:00S 35°57' W 143°11'0 0.0 1000.7 16.5
2016-Dec-04 15:00S 35°57' W 143°11'0 0.0 1000.5 16.5
2016-Dec-04 14:00S 35°57' W 143°11'0 0.0 1000.3 16.5
2016-Dec-04 13:00S 35°57' W 143°11'1 0.3 1000.6 16.5
2016-Dec-04 11:00S 35°56' W 143°11'0 0.0 1001.8 16.4
2016-Dec-04 10:00S 35°56' W 143°11'2 0.9 1003.5 16.4
2016-Dec-04 08:00S 35°55' W 143°10'0 0.0 1006.3 16.4
2016-Dec-04 07:00S 35°55' W 143°10'0 0.0 1007.4 16.4
2016-Dec-04 06:00S 35°55' W 143°10'1 1.1 1008.2 16.4
2016-Dec-04 05:00S 35°55' W 143°08'1 0.8 1008.4 16.4
2016-Dec-04 04:00S 35°55' W 143°09'2 0.8 1008.8 16.3
2016-Dec-04 02:00S 35°54' W 143°08'0 0.0 1010.2 16.3
2016-Dec-04 01:00S 35°54' W 143°08'0 0.0 1010.9 16.3
2016-Dec-03 23:00S 35°54' W 143°08'1 0.3 1012.9 16.2
2016-Dec-03 19:00S 35°53' W 143°07'0 0.5 1016.2 16.5
2016-Dec-03 18:00S 35°53' W 143°07'1 0.6 1017.1 16.6
2016-Dec-03 17:00S 35°53' W 143°07'1 1.0 1017.6 16.6
2016-Dec-03 16:00S 35°53' W 143°08'2 1.6 1017.5 16.6
2016-Dec-03 15:00S 35°53' W 143°07'2 1.5 1016.8 16.7
2016-Dec-03 14:00S 35°52' W 143°08'0 0.0 1017.2 16.8
2016-Dec-03 13:00S 35°52' W 143°08'1 0.8 1017.5 16.9
2016-Dec-03 12:00S 35°52' W 143°08'0 0.5 1017.5 16.9
2016-Dec-03 11:00S 35°52' W 143°09'2 1.6 1018.7 17.0
2016-Dec-03 10:00S 35°51' W 143°07'0 0.0 1018.9 17.0
2016-Dec-03 09:00S 35°51' W 143°07'0 0.0 1019.5 17.1
2016-Dec-03 08:00S 35°51' W 143°07'0 0.5 1020.0 17.1
2016-Dec-03 07:00S 35°51' W 143°07'1 0.6 1020.2 17.2
2016-Dec-03 06:00S 35°50' W 143°07'71424773.7 1019.8 17.2
2016-Dec-03 04:30N 36°45' E 122°33'714314175.7
2016-Dec-03 04:00S 35°50' W 143°05'715316184.9 1019.0 17.1
2016-Dec-03 03:33N 36°50' E 122°25'71542796.5
2016-Dec-03 01:00S 35°51' W 143°05'2 2.0 1017.8 17.0
2016-Dec-03 00:00S 35°53' W 143°06'2 1.5 1018.1 16.9
2016-Dec-02 23:00S 35°52' W 143°05'2 0.5 1017.8 16.8
2016-Dec-02 20:00S 35°53' W 143°06'1 1.0 1017.7 16.5
2016-Dec-02 19:00S 35°53' W 143°07'0 0.5 1017.4 16.4
2016-Dec-02 18:00S 35°53' W 143°07'1 0.8 1017.3 16.3
2016-Dec-02 17:00S 35°52' W 143°07'1 1.3 1016.8 16.2
2016-Dec-02 16:00S 35°53' W 143°08'1 1.1 1016.4 16.2
2016-Dec-02 15:00S 35°53' W 143°07'1 1.1 1016.0 16.1
2016-Dec-02 14:00S 35°52' W 143°08'0 0.5 1015.0 16.1
2016-Dec-02 13:00S 35°52' W 143°07'0 0.5 1014.3 16.0
2016-Dec-02 12:00S 35°52' W 143°08'3 2.5 1013.8 16.0
2016-Dec-02 11:00S 35°53' W 143°05'2 1.9 1013.3 16.0
2016-Dec-02 10:00S 35°53' W 143°07'0 0.2 1013.4 16.0
2016-Dec-02 08:00S 35°53' W 143°07'4 0.6 1013.1 16.0
2016-Dec-02 01:00S 35°56' W 143°10'0 0.0 1007.0 16.2
2016-Dec-02 00:00S 35°56' W 143°10'2 2.0 1006.6 16.2
2016-Dec-01 23:00S 35°56' W 143°12'1 0.3 1006.2 16.2
2016-Dec-01 19:00S 35°56' W 143°11'1 1.1 1004.9 16.1
2016-Dec-01 18:00S 35°56' W 143°12'1 0.8 1005.1 16.1
2016-Dec-01 17:00S 35°56' W 143°11'1 1.0 1005.3 16.0
2016-Dec-01 16:00S 35°56' W 143°10'1 1.0 1005.2 16.0
2016-Dec-01 15:00S 35°56' W 143°11'0 0.5 1005.1 16.0
2016-Dec-01 14:00S 35°56' W 143°11'1 0.8 1004.9 16.0
2016-Dec-01 13:00S 35°57' W 143°10'1 1.0 1005.0 16.0
2016-Dec-01 12:00S 35°57' W 143°11'1 0.5 1005.1 16.0
2016-Dec-01 10:00S 35°57' W 143°13'1 0.3 1006.5 15.9
2016-Dec-01 08:00S 35°56' W 143°13'1 0.6 1007.8 15.8
2016-Dec-01 07:00S 35°56' W 143°13'1 0.3 1008.4 15.9
2016-Dec-01 05:00S 35°55' W 143°13'2 0.6 1008.9 16.0
2016-Dec-01 01:00S 35°53' W 143°14'1 1.0 1010.2 16.1
2016-Dec-01 00:00S 35°53' W 143°13'0 0.0 1011.1 16.2
2016-Nov-30 23:00S 35°53' W 143°13'3 0.6 1012.2 16.2
2016-Nov-30 19:00S 35°51' W 143°14'0 0.0 1015.0 16.2
2016-Nov-30 18:00S 35°51' W 143°14'0 0.0 1015.7 16.3
2016-Nov-30 17:00S 35°51' W 143°14'2 1.9 1016.8 16.3
2016-Nov-30 16:00S 35°50' W 143°13'1 0.6 1016.8 16.4
2016-Nov-30 15:00S 35°49' W 143°13'0 0.2 1016.5 16.5
2016-Nov-30 13:00S 35°49' W 143°12'2 1.5 1016.5 16.7
2016-Nov-30 12:00S 35°48' W 143°13'1 1.5 1016.8 16.8
2016-Nov-30 11:00S 35°48' W 143°11'0 0.0 1017.2 16.9
2016-Nov-30 10:00S 35°48' W 143°11'1 0.6 1017.7 16.9
2016-Nov-30 09:00S 35°49' W 143°11'0 0.0 1018.3 17.0
2016-Nov-30 08:00S 35°49' W 143°11'3 0.4 1018.7 17.0
2016-Nov-30 01:00S 35°46' W 143°13'2 2.3 1019.9 17.2
2016-Nov-30 00:00S 35°45' W 143°10'0 0.0 1019.8 17.2
2016-Nov-29 23:00S 35°45' W 143°10'0 0.1 1020.3 17.2
2016-Nov-29 19:00S 35°45' W 143°11'0 0.5 1022.5 17.2
2016-Nov-29 18:00S 35°45' W 143°10'1 0.6 1022.6 17.2
2016-Nov-29 17:00S 35°46' W 143°10'0 0.5 1022.9 17.1
2016-Nov-29 16:00S 35°46' W 143°10'0 0.5 1022.9 17.1
2016-Nov-29 15:00S 35°46' W 143°09'1 1.1 1022.3 17.2
2016-Nov-29 14:00S 35°46' W 143°10'0 0.0 1022.2 17.2
2016-Nov-29 13:00S 35°46' W 143°10'0 0.0 1021.7 17.3
2016-Nov-29 12:00S 35°46' W 143°10'1 1.0 1021.9 17.3
2016-Nov-29 11:00S 35°46' W 143°11'1 0.6 1021.9 17.3
2016-Nov-29 09:00S 35°46' W 143°13'1 1.1 1023.0 17.4
2016-Nov-29 08:00S 35°45' W 143°11'0 0.0 1023.4 17.4
2016-Nov-29 07:00S 35°45' W 143°11'1 0.6 1023.8 17.5
2016-Nov-29 06:00S 35°44' W 143°11'0 0.0 1023.8 17.6
2016-Nov-29 05:00S 35°44' W 143°11'1 0.4 1023.6 17.6
2016-Nov-29 03:00S 35°44' W 143°11'1 0.5 1023.3 17.9
2016-Nov-29 01:00S 35°44' W 143°10'0 0.0 1023.2 18.2
2016-Nov-29 00:00S 35°44' W 143°10'1 0.2 1023.2 18.0
2016-Nov-28 18:00S 35°45' W 143°09'1 1.3 1024.6 16.7
2016-Nov-28 17:00S 35°46' W 143°10'0 0.0 1024.4 16.7
2016-Nov-28 16:00S 35°46' W 143°10'1 0.7 1024.4 16.7
2016-Nov-28 14:00S 35°46' W 143°11'0 0.0 1023.9 16.7
2016-Nov-28 12:00S 35°46' W 143°11'1 0.8 1023.4 16.7
2016-Nov-28 11:00S 35°46' W 143°12'1 0.6 1023.9 16.7
2016-Nov-28 09:00S 35°44' W 143°11'1 0.3 1024.8 16.7
2016-Nov-28 06:00S 35°44' W 143°10'2 0.5 1024.5 16.7
2016-Nov-28 01:00S 35°46' W 143°08'3 2.7 1023.7 16.7
2016-Nov-28 00:00S 35°47' W 143°10'0 0.0 1023.8 16.6
2016-Nov-27 23:00S 35°47' W 143°10'2 0.5 1023.6 16.4
2016-Nov-27 19:00S 35°48' W 143°13'0 0.0 1023.9 16.0
2016-Nov-27 18:00S 35°48' W 143°13'1 1.1 1023.6 15.9
2016-Nov-27 17:00S 35°49' W 143°14'1 0.8 1023.5 15.9
2016-Nov-27 16:00S 35°48' W 143°13'1 1.2 1023.5 15.9
2016-Nov-27 15:00S 35°47' W 143°13'1 0.3 1023.5 15.8
2016-Nov-27 13:00S 35°47' W 143°13'0 0.0 1022.9 15.9
2016-Nov-27 12:00S 35°47' W 143°13'1 1.2 1022.5 15.9
2016-Nov-27 11:00S 35°46' W 143°13'1 0.8 1022.5 15.9
2016-Nov-27 10:00S 35°47' W 143°13'1 0.5 1022.7 15.9
2016-Nov-27 08:00S 35°47' W 143°11'0 0.0 1023.6 15.9
2016-Nov-27 07:00S 35°47' W 143°11'1 0.8 1023.0 15.9
2016-Nov-27 06:00S 35°47' W 143°11'1 0.6 1023.0 16.0
2016-Nov-27 05:00S 35°48' W 143°11'3 0.7 1022.4 16.0
2016-Nov-27 01:00S 35°50' W 143°13'1 0.6 1021.0 16.0
2016-Nov-27 00:00S 35°50' W 143°13'0 0.0 1021.0 16.0
2016-Nov-26 23:00S 35°50' W 143°13'1 0.4 1021.0 15.9
2016-Nov-26 19:00S 35°50' W 143°15'1 0.8 1020.8 15.8
2016-Nov-26 18:00S 35°50' W 143°16'0 0.0 1020.7 15.7
2016-Nov-26 17:00S 35°50' W 143°16'0 0.5 1020.4 15.7
2016-Nov-26 16:00S 35°50' W 143°15'1 0.8 1020.0 15.7
2016-Nov-26 15:00S 35°50' W 143°14'0 0.0 1019.6 15.7
2016-Nov-26 14:00S 35°50' W 143°14'   1019.3 15.7
Track history (hours):
 
Tides and Currents Weather Stations Pressure Air Temp Water Temp Dewpoint Dewpoint Depression Visibility Wind Speed Wind Dir Waves Ship Positions

Luruyu54955

Last reported at 2016-Dec-06 14:00 UTC. Time now 2016-Dec-06 16:06 UTC.
Position S 35°46' W 143°17'.

Length 27 m.

Type: Fishing. MMSI: 412330945.

Barometer 1014.7 mb
Water temperature 17.6 ° C

Date/timePositionNaut miles runAvg speedWind from/ knotsBaromVisibWave heightAir tempDewpointWater temp
2016-Dec-06 14:00S 35°46' W 143°17'0 0.0 1014.7 17.6
2016-Dec-06 13:00S 35°46' W 143°17'1 0.8 1015.0 17.6
2016-Dec-06 12:00S 35°47' W 143°17'1 0.8 1015.5 17.6
2016-Dec-06 11:00S 35°47' W 143°18'0 0.0 1016.2 17.6
2016-Dec-06 10:00S 35°47' W 143°18'2 1.6 1016.8 17.6
2016-Dec-06 09:00S 35°48' W 143°20'0 0.5 1017.2 17.7
2016-Dec-06 08:00S 35°48' W 143°19'1 1.2 1017.1 17.7
2016-Dec-06 07:00S 35°47' W 143°19'1 0.6 1017.5 17.7
2016-Dec-06 06:00S 35°47' W 143°19'1 0.8 1017.7 17.7
2016-Dec-06 05:00S 35°47' W 143°19'1 0.2 1017.4 17.7
2016-Dec-06 01:00S 35°47' W 143°19'1 1.5 1016.8 17.8
2016-Dec-06 00:00S 35°47' W 143°17'0 0.0 1017.1 17.7
2016-Dec-05 23:00S 35°47' W 143°17'0 0.0 1017.1 17.6
2016-Dec-05 22:00S 35°47' W 143°17'2 0.5 1017.1 17.6
2016-Dec-05 19:00S 35°48' W 143°16'1 0.8 1016.7 17.3
2016-Dec-05 18:00S 35°49' W 143°15'1 0.8 1016.5 17.2
2016-Dec-05 17:00S 35°49' W 143°14'1 0.6 1016.2 17.0
2016-Dec-05 16:00S 35°49' W 143°14'2 2.0 1015.4 17.0
2016-Dec-05 15:00S 35°50' W 143°13'0 0.0 1014.6 16.9
2016-Dec-05 14:00S 35°50' W 143°13'1 0.4 1013.8 16.8
2016-Dec-05 12:00S 35°51' W 143°14'1 1.3 1012.6 16.6
2016-Dec-05 11:00S 35°52' W 143°14'1 0.2 1012.4 16.6
2016-Dec-05 08:00S 35°52' W 143°14'0 0.0 1011.5 16.6
2016-Dec-05 07:00S 35°52' W 143°14'0 0.5 1010.7 16.6
2016-Dec-05 06:00S 35°52' W 143°14'2 0.4 1009.9 16.6
2016-Dec-05 01:00S 35°53' W 143°12'1 1.3 1006.5 16.8
2016-Dec-05 00:00S 35°54' W 143°11'0 0.0 1006.1 16.8
2016-Dec-04 23:00S 35°54' W 143°11'2 0.8 1005.7 16.7
2016-Dec-04 20:00S 35°56' W 143°11'0 0.0 1003.9 16.7
2016-Dec-04 19:00S 35°56' W 143°11'1 0.6 1002.7 16.6
2016-Dec-04 18:00S 35°57' W 143°11'0 0.5 1002.0 16.6
2016-Dec-04 17:00S 35°57' W 143°11'0 0.5 1001.2 16.6
2016-Dec-04 16:00S 35°57' W 143°11'0 0.0 1000.7 16.5
2016-Dec-04 15:00S 35°57' W 143°11'0 0.0 1000.5 16.5
2016-Dec-04 14:00S 35°57' W 143°11'0 0.0 1000.3 16.5
2016-Dec-04 13:00S 35°57' W 143°11'1 0.3 1000.6 16.5
2016-Dec-04 11:00S 35°56' W 143°11'0 0.0 1001.8 16.4
2016-Dec-04 10:00S 35°56' W 143°11'2 0.9 1003.5 16.4
2016-Dec-04 08:00S 35°55' W 143°10'0 0.0 1006.3 16.4
2016-Dec-04 07:00S 35°55' W 143°10'0 0.0 1007.4 16.4
2016-Dec-04 06:00S 35°55' W 143°10'1 1.1 1008.2 16.4
2016-Dec-04 05:00S 35°55' W 143°08'1 0.8 1008.4 16.4
2016-Dec-04 04:00S 35°55' W 143°09'2 0.8 1008.8 16.3
2016-Dec-04 02:00S 35°54' W 143°08'0 0.0 1010.2 16.3
2016-Dec-04 01:00S 35°54' W 143°08'0 0.0 1010.9 16.3
2016-Dec-03 23:00S 35°54' W 143°08'1 0.3 1012.9 16.2
2016-Dec-03 19:00S 35°53' W 143°07'0 0.5 1016.2 16.5
2016-Dec-03 18:00S 35°53' W 143°07'1 0.6 1017.1 16.6
2016-Dec-03 17:00S 35°53' W 143°07'1 1.0 1017.6 16.6
2016-Dec-03 16:00S 35°53' W 143°08'2 1.6 1017.5 16.6
2016-Dec-03 15:00S 35°53' W 143°07'2 1.5 1016.8 16.7
2016-Dec-03 14:00S 35°52' W 143°08'0 0.0 1017.2 16.8
2016-Dec-03 13:00S 35°52' W 143°08'1 0.8 1017.5 16.9
2016-Dec-03 12:00S 35°52' W 143°08'0 0.5 1017.5 16.9
2016-Dec-03 11:00S 35°52' W 143°09'2 1.6 1018.7 17.0
2016-Dec-03 10:00S 35°51' W 143°07'0 0.0 1018.9 17.0
2016-Dec-03 09:00S 35°51' W 143°07'0 0.0 1019.5 17.1
2016-Dec-03 08:00S 35°51' W 143°07'0 0.5 1020.0 17.1
2016-Dec-03 07:00S 35°51' W 143°07'1 0.6 1020.2 17.2
2016-Dec-03 06:00S 35°50' W 143°07'71424773.7 1019.8 17.2
2016-Dec-03 04:30N 36°45' E 122°33'714314175.7
2016-Dec-03 04:00S 35°50' W 143°05'715316184.9 1019.0 17.1
2016-Dec-03 03:33N 36°50' E 122°25'71542796.5
2016-Dec-03 01:00S 35°51' W 143°05'2 2.0 1017.8 17.0
2016-Dec-03 00:00S 35°53' W 143°06'2 1.5 1018.1 16.9
2016-Dec-02 23:00S 35°52' W 143°05'2 0.5 1017.8 16.8
2016-Dec-02 20:00S 35°53' W 143°06'1 1.0 1017.7 16.5
2016-Dec-02 19:00S 35°53' W 143°07'0 0.5 1017.4 16.4
2016-Dec-02 18:00S 35°53' W 143°07'1 0.8 1017.3 16.3
2016-Dec-02 17:00S 35°52' W 143°07'1 1.3 1016.8 16.2
2016-Dec-02 16:00S 35°53' W 143°08'1 1.1 1016.4 16.2
2016-Dec-02 15:00S 35°53' W 143°07'1 1.1 1016.0 16.1
2016-Dec-02 14:00S 35°52' W 143°08'0 0.5 1015.0 16.1
2016-Dec-02 13:00S 35°52' W 143°07'0 0.5 1014.3 16.0
2016-Dec-02 12:00S 35°52' W 143°08'3 2.5 1013.8 16.0
2016-Dec-02 11:00S 35°53' W 143°05'2 1.9 1013.3 16.0
2016-Dec-02 10:00S 35°53' W 143°07'0 0.2 1013.4 16.0
2016-Dec-02 08:00S 35°53' W 143°07'4 0.6 1013.1 16.0
2016-Dec-02 01:00S 35°56' W 143°10'0 0.0 1007.0 16.2
2016-Dec-02 00:00S 35°56' W 143°10'2 2.0 1006.6 16.2
2016-Dec-01 23:00S 35°56' W 143°12'1 0.3 1006.2 16.2
2016-Dec-01 19:00S 35°56' W 143°11'1 1.1 1004.9 16.1
2016-Dec-01 18:00S 35°56' W 143°12'1 0.8 1005.1 16.1
2016-Dec-01 17:00S 35°56' W 143°11'1 1.0 1005.3 16.0
2016-Dec-01 16:00S 35°56' W 143°10'1 1.0 1005.2 16.0
2016-Dec-01 15:00S 35°56' W 143°11'0 0.5 1005.1 16.0
2016-Dec-01 14:00S 35°56' W 143°11'1 0.8 1004.9 16.0
2016-Dec-01 13:00S 35°57' W 143°10'1 1.0 1005.0 16.0
2016-Dec-01 12:00S 35°57' W 143°11'1 0.5 1005.1 16.0
2016-Dec-01 10:00S 35°57' W 143°13'1 0.3 1006.5 15.9
2016-Dec-01 08:00S 35°56' W 143°13'1 0.6 1007.8 15.8
2016-Dec-01 07:00S 35°56' W 143°13'1 0.3 1008.4 15.9
2016-Dec-01 05:00S 35°55' W 143°13'2 0.6 1008.9 16.0
2016-Dec-01 01:00S 35°53' W 143°14'1 1.0 1010.2 16.1
2016-Dec-01 00:00S 35°53' W 143°13'0 0.0 1011.1 16.2
2016-Nov-30 23:00S 35°53' W 143°13'3 0.6 1012.2 16.2
2016-Nov-30 19:00S 35°51' W 143°14'0 0.0 1015.0 16.2
2016-Nov-30 18:00S 35°51' W 143°14'0 0.0 1015.7 16.3
2016-Nov-30 17:00S 35°51' W 143°14'2 1.9 1016.8 16.3
2016-Nov-30 16:00S 35°50' W 143°13'1 0.6 1016.8 16.4
2016-Nov-30 15:00S 35°49' W 143°13'0 0.2 1016.5 16.5
2016-Nov-30 13:00S 35°49' W 143°12'2 1.5 1016.5 16.7
2016-Nov-30 12:00S 35°48' W 143°13'1 1.5 1016.8 16.8
2016-Nov-30 11:00S 35°48' W 143°11'0 0.0 1017.2 16.9
2016-Nov-30 10:00S 35°48' W 143°11'1 0.6 1017.7 16.9
2016-Nov-30 09:00S 35°49' W 143°11'0 0.0 1018.3 17.0
2016-Nov-30 08:00S 35°49' W 143°11'3 0.4 1018.7 17.0
2016-Nov-30 01:00S 35°46' W 143°13'2 2.3 1019.9 17.2
2016-Nov-30 00:00S 35°45' W 143°10'0 0.0 1019.8 17.2
2016-Nov-29 23:00S 35°45' W 143°10'0 0.1 1020.3 17.2
2016-Nov-29 19:00S 35°45' W 143°11'0 0.5 1022.5 17.2
2016-Nov-29 18:00S 35°45' W 143°10'1 0.6 1022.6 17.2
2016-Nov-29 17:00S 35°46' W 143°10'0 0.5 1022.9 17.1
2016-Nov-29 16:00S 35°46' W 143°10'0 0.5 1022.9 17.1
2016-Nov-29 15:00S 35°46' W 143°09'1 1.1 1022.3 17.2
2016-Nov-29 14:00S 35°46' W 143°10'0 0.0 1022.2 17.2
2016-Nov-29 13:00S 35°46' W 143°10'0 0.0 1021.7 17.3
2016-Nov-29 12:00S 35°46' W 143°10'1 1.0 1021.9 17.3
2016-Nov-29 11:00S 35°46' W 143°11'1 0.6 1021.9 17.3
2016-Nov-29 09:00S 35°46' W 143°13'1 1.1 1023.0 17.4
2016-Nov-29 08:00S 35°45' W 143°11'0 0.0 1023.4 17.4
2016-Nov-29 07:00S 35°45' W 143°11'1 0.6 1023.8 17.5
2016-Nov-29 06:00S 35°44' W 143°11'0 0.0 1023.8 17.6
2016-Nov-29 05:00S 35°44' W 143°11'1 0.4 1023.6 17.6
2016-Nov-29 03:00S 35°44' W 143°11'1 0.5 1023.3 17.9
2016-Nov-29 01:00S 35°44' W 143°10'0 0.0 1023.2 18.2
2016-Nov-29 00:00S 35°44' W 143°10'1 0.2 1023.2 18.0
2016-Nov-28 18:00S 35°45' W 143°09'1 1.3 1024.6 16.7
2016-Nov-28 17:00S 35°46' W 143°10'0 0.0 1024.4 16.7
2016-Nov-28 16:00S 35°46' W 143°10'1 0.7 1024.4 16.7
2016-Nov-28 14:00S 35°46' W 143°11'0 0.0 1023.9 16.7
2016-Nov-28 12:00S 35°46' W 143°11'1 0.8 1023.4 16.7
2016-Nov-28 11:00S 35°46' W 143°12'1 0.6 1023.9 16.7
2016-Nov-28 09:00S 35°44' W 143°11'1 0.3 1024.8 16.7
2016-Nov-28 06:00S 35°44' W 143°10'2 0.5 1024.5 16.7
2016-Nov-28 01:00S 35°46' W 143°08'3 2.7 1023.7 16.7
2016-Nov-28 00:00S 35°47' W 143°10'0 0.0 1023.8 16.6
2016-Nov-27 23:00S 35°47' W 143°10'2 0.5 1023.6 16.4
2016-Nov-27 19:00S 35°48' W 143°13'0 0.0 1023.9 16.0
2016-Nov-27 18:00S 35°48' W 143°13'1 1.1 1023.6 15.9
2016-Nov-27 17:00S 35°49' W 143°14'1 0.8 1023.5 15.9
2016-Nov-27 16:00S 35°48' W 143°13'1 1.2 1023.5 15.9
2016-Nov-27 15:00S 35°47' W 143°13'1 0.3 1023.5 15.8
2016-Nov-27 13:00S 35°47' W 143°13'0 0.0 1022.9 15.9
2016-Nov-27 12:00S 35°47' W 143°13'1 1.2 1022.5 15.9
2016-Nov-27 11:00S 35°46' W 143°13'1 0.8 1022.5 15.9
2016-Nov-27 10:00S 35°47' W 143°13'1 0.5 1022.7 15.9
2016-Nov-27 08:00S 35°47' W 143°11'0 0.0 1023.6 15.9
2016-Nov-27 07:00S 35°47' W 143°11'1 0.8 1023.0 15.9
2016-Nov-27 06:00S 35°47' W 143°11'1 0.6 1023.0 16.0
2016-Nov-27 05:00S 35°48' W 143°11'3 0.7 1022.4 16.0
2016-Nov-27 01:00S 35°50' W 143°13'1 0.6 1021.0 16.0
2016-Nov-27 00:00S 35°50' W 143°13'0 0.0 1021.0 16.0
2016-Nov-26 23:00S 35°50' W 143°13'1 0.4 1021.0 15.9
2016-Nov-26 19:00S 35°50' W 143°15'1 0.8 1020.8 15.8
2016-Nov-26 18:00S 35°50' W 143°16'0 0.0 1020.7 15.7
2016-Nov-26 17:00S 35°50' W 143°16'0 0.5 1020.4 15.7
2016-Nov-26 16:00S 35°50' W 143°15'1 0.8 1020.0 15.7
2016-Nov-26 15:00S 35°50' W 143°14'0 0.0 1019.6 15.7
2016-Nov-26 14:00S 35°50' W 143°14'   1019.3 15.7

Dump ship's entire track history